Time,TemperatureF,DewpointF,PressureIn,WindDirection,WindDirectionDegrees,WindSpeedMPH,WindSpeedGustMPH,Humidity,HourlyPrecipIn,Conditions,Clouds,dailyrainin,SoftwareType,DateUTC
2013-01-21 00:12:00,31.7,12.0,30.55,NNE,20,2.0,4.0,44,0.00,,,0.00,weatherlink.com 1.10,2013-01-21 07:12:00,
2013-01-21 00:27:00,31.8,11.0,30.55,NE,53,0.0,5.0,42,0.00,,,0.00,weatherlink.com 1.10,2013-01-21 07:27:00,
2013-01-21 00:42:00,31.9,12.0,30.55,NE,44,0.0,6.0,43,0.00,,,0.00,weatherlink.com 1.10,2013-01-21 07:42:00,
2013-01-21 00:57:00,31.6,12.0,30.55,ENE,62,1.0,5.0,45,0.00,,,0.00,weatherlink.com 1.10,2013-01-21 07:57:00,
2013-01-21 01:27:00,31.5,13.0,30.55,North,6,0.0,3.0,46,0.00,,,0.00,weatherlink.com 1.10,2013-01-21 08:27:00,
2013-01-21 01:42:00,31.4,13.0,30.54,ENE,60,0.0,7.0,47,0.00,,,0.00,weatherlink.com 1.10,2013-01-21 08:42:00,
2013-01-21 01:57:00,31.4,14.0,30.55,NE,37,3.0,5.0,48,0.00,,,0.00,weatherlink.com 1.10,2013-01-21 08:57:00,
2013-01-21 02:13:00,31.5,14.0,30.55,NE,42,0.0,8.0,49,0.00,,,0.00,weatherlink.com 1.10,2013-01-21 09:13:00,
2013-01-21 02:28:00,31.7,15.0,30.55,ESE,103,0.0,8.0,50,0.00,,,0.00,weatherlink.com 1.10,2013-01-21 09:28:00,
2013-01-21 02:43:00,31.7,15.0,30.55,NNE,27,3.0,8.0,50,0.00,,,0.00,weatherlink.com 1.10,2013-01-21 09:43:00,
2013-01-21 02:58:00,31.4,15.0,30.54,ENE,67,0.0,5.0,50,0.00,,,0.00,weatherlink.com 1.10,2013-01-21 09:58:00,
2013-01-21 03:13:00,31.5,15.0,30.54,NE,38,2.0,6.0,50,0.00,,,0.00,weatherlink.com 1.10,2013-01-21 10:13:00,
2013-01-21 03:28:00,31.6,14.0,30.54,North,360,1.0,7.0,49,0.00,,,0.00,weatherlink.com 1.10,2013-01-21 10:28:00,
2013-01-21 03:43:00,32.0,13.0,30.54,ENE,58,3.0,5.0,46,0.00,,,0.00,weatherlink.com 1.10,2013-01-21 10:43:00,
2013-01-21 03:58:00,32.5,13.0,30.53,SE,140,0.0,5.0,45,0.00,,,0.00,weatherlink.com 1.10,2013-01-21 10:58:00,
2013-01-21 04:13:00,32.7,13.0,30.53,ENE,59,6.0,7.0,45,0.00,,,0.00,weatherlink.com 1.10,2013-01-21 11:13:00,
2013-01-21 04:28:00,33.3,13.0,30.53,NNE,27,0.0,4.0,44,0.00,,,0.00,weatherlink.com 1.10,2013-01-21 11:28:00,
2013-01-21 04:43:00,32.6,14.0,30.53,NNE,30,0.0,6.0,46,0.00,,,0.00,weatherlink.com 1.10,2013-01-21 11:43:00,
2013-01-21 04:58:00,32.3,14.0,30.53,ENE,68,0.0,4.0,48,0.00,,,0.00,weatherlink.com 1.10,2013-01-21 11:58:00,
2013-01-21 05:13:00,32.3,14.0,30.52,NE,42,0.0,3.0,48,0.00,,,0.00,weatherlink.com 1.10,2013-01-21 12:13:00,
2013-01-21 05:29:00,32.7,14.0,30.53,ENE,69,0.0,5.0,47,0.00,,,0.00,weatherlink.com 1.10,2013-01-21 12:29:00,
2013-01-21 05:44:00,32.7,14.0,30.52,NE,48,0.0,2.0,47,0.00,,,0.00,weatherlink.com 1.10,2013-01-21 12:44:00,
2013-01-21 05:59:00,33.2,14.0,30.53,NNE,25,0.0,5.0,46,0.00,,,0.00,weatherlink.com 1.10,2013-01-21 12:59:00,
2013-01-21 06:14:00,33.1,15.0,30.53,East,88,5.0,5.0,47,0.00,,,0.00,weatherlink.com 1.10,2013-01-21 13:14:00,
2013-01-21 06:29:00,33.1,15.0,30.53,ENE,63,0.0,4.0,47,0.00,,,0.00,weatherlink.com 1.10,2013-01-21 13:29:00,
2013-01-21 06:44:00,33.3,15.0,30.53,NNE,31,1.0,5.0,48,0.00,,,0.00,weatherlink.com 1.10,2013-01-21 13:44:00,
2013-01-21 06:59:00,33.1,15.0,30.54,ENE,77,0.0,4.0,47,0.00,,,0.00,weatherlink.com 1.10,2013-01-21 13:59:00,
2013-01-21 07:14:00,32.9,15.0,30.54,NE,54,0.0,7.0,48,0.00,,,0.00,weatherlink.com 1.10,2013-01-21 14:14:00,
2013-01-21 07:29:00,32.6,15.0,30.54,East,94,0.0,8.0,48,0.00,,,0.00,weatherlink.com 1.10,2013-01-21 14:29:00,
2013-01-21 07:48:00,32.0,14.0,30.53,NE,44,1.0,6.0,48,0.00,,,0.00,weatherlink.com 1.10,2013-01-21 14:48:00,
2013-01-21 07:59:00,32.3,14.0,30.53,NNW,330,1.0,5.0,47,0.00,,,0.00,weatherlink.com 1.10,2013-01-21 14:59:00,
2013-01-21 08:14:00,33.3,14.0,30.53,ENE,65,1.0,8.0,45,0.00,,,0.00,weatherlink.com 1.10,2013-01-21 15:14:00,
2013-01-21 08:29:00,34.3,14.0,30.54,North,1,2.0,7.0,43,0.00,,,0.00,weatherlink.com 1.10,2013-01-21 15:29:00,
2013-01-21 08:44:00,34.9,12.0,30.54,NNE,21,0.0,8.0,39,0.00,,,0.00,weatherlink.com 1.10,2013-01-21 15:44:00,
2013-01-21 09:00:00,35.3,8.0,30.55,North,4,1.0,12.0,32,0.00,,,0.00,weatherlink.com 1.10,2013-01-21 16:00:00,
2013-01-21 09:15:00,35.6,8.0,30.56,East,82,0.0,12.0,31,0.00,,,0.00,weatherlink.com 1.10,2013-01-21 16:15:00,
2013-01-21 09:30:00,36.4,8.0,30.57,NNE,21,1.0,8.0,30,0.00,,,0.00,weatherlink.com 1.10,2013-01-21 16:30:00,
2013-01-21 09:45:00,37.0,7.0,30.57,SE,139,0.0,14.0,29,0.00,,,0.00,weatherlink.com 1.10,2013-01-21 16:45:00,
2013-01-21 10:00:00,37.9,7.0,30.57,ESE,110,0.0,14.0,28,0.00,,,0.00,weatherlink.com 1.10,2013-01-21 17:00:00,
2013-01-21 10:15:00,38.6,6.0,30.57,North,4,3.0,12.0,26,0.00,,,0.00,weatherlink.com 1.10,2013-01-21 17:15:00,
2013-01-21 10:30:00,39.2,6.0,30.58,NNW,333,4.0,15.0,25,0.00,,,0.00,weatherlink.com 1.10,2013-01-21 17:30:00,
2013-01-21 10:48:00,40.5,7.0,30.57,East,98,5.0,11.0,25,0.00,,,0.00,weatherlink.com 1.10,2013-01-21 17:48:00,
2013-01-21 11:00:00,42.6,6.0,30.57,ENE,69,3.0,12.0,22,0.00,,,0.00,weatherlink.com 1.10,2013-01-21 18:00:00,
2013-01-21 11:15:00,44.4,8.0,30.57,NNE,13,2.0,9.0,22,0.00,,,0.00,weatherlink.com 1.10,2013-01-21 18:15:00,
2013-01-21 11:30:00,44.8,7.0,30.56,ENE,72,7.0,12.0,21,0.00,,,0.00,weatherlink.com 1.10,2013-01-21 18:30:00,
2013-01-21 11:45:00,45.9,9.0,30.56,East,86,2.0,12.0,22,0.00,,,0.00,weatherlink.com 1.10,2013-01-21 18:45:00,
2013-01-21 12:00:00,46.4,8.0,30.55,ENE,63,3.0,11.0,21,0.00,,,0.00,weatherlink.com 1.10,2013-01-21 19:00:00,
2013-01-21 12:15:00,46.7,10.0,30.55,ESE,105,3.0,10.0,22,0.00,,,0.00,weatherlink.com 1.10,2013-01-21 19:15:00,
2013-01-21 12:30:00,46.5,10.0,30.54,NNE,18,6.0,12.0,23,0.00,,,0.00,weatherlink.com 1.10,2013-01-21 19:30:00,
2013-01-21 12:46:00,46.0,10.0,30.54,North,359,2.0,15.0,23,0.00,,,0.00,weatherlink.com 1.10,2013-01-21 19:46:00,
2013-01-21 13:01:00,46.3,11.0,30.54,NNW,327,2.0,15.0,24,0.00,,,0.00,weatherlink.com 1.10,2013-01-21 20:01:00,
2013-01-21 13:16:00,46.2,11.0,30.53,North,360,3.0,12.0,24,0.00,,,0.00,weatherlink.com 1.10,2013-01-21 20:16:00,
2013-01-21 13:31:00,45.6,12.0,30.52,North,351,1.0,15.0,25,0.00,,,0.00,weatherlink.com 1.10,2013-01-21 20:31:00,
2013-01-21 13:46:00,46.3,12.0,30.52,NW,323,5.0,10.0,25,0.00,,,0.00,weatherlink.com 1.10,2013-01-21 20:46:00,
2013-01-21 14:16:00,47.5,10.0,30.51,North,8,1.0,9.0,22,0.00,,,0.00,weatherlink.com 1.10,2013-01-21 21:16:00,
2013-01-21 14:31:00,47.3,7.0,30.50,NNE,32,4.0,15.0,19,0.00,,,0.00,weatherlink.com 1.10,2013-01-21 21:31:00,
2013-01-21 14:46:00,47.8,9.0,30.51,North,357,6.0,9.0,21,0.00,,,0.00,weatherlink.com 1.10,2013-01-21 21:46:00,
2013-01-21 15:01:00,47.9,8.0,30.51,North,360,3.0,13.0,20,0.00,,,0.00,weatherlink.com 1.10,2013-01-21 22:01:00,
2013-01-21 15:16:00,47.9,8.0,30.51,North,359,4.0,13.0,20,0.00,,,0.00,weatherlink.com 1.10,2013-01-21 22:16:00,
2013-01-21 15:31:00,47.6,10.0,30.50,North,1,5.0,12.0,22,0.00,,,0.00,weatherlink.com 1.10,2013-01-21 22:31:00,
2013-01-21 15:46:00,47.2,11.0,30.51,NNW,330,3.0,10.0,23,0.00,,,0.00,weatherlink.com 1.10,2013-01-21 22:46:00,
2013-01-21 16:01:00,46.9,11.0,30.51,North,1,3.0,10.0,23,0.00,,,0.00,weatherlink.com 1.10,2013-01-21 23:01:00,
2013-01-21 16:16:00,46.7,11.0,30.51,NNE,18,0.0,4.0,23,0.00,,,0.00,weatherlink.com 1.10,2013-01-21 23:16:00,
2013-01-21 16:31:00,45.9,12.0,30.52,ENE,71,0.0,7.0,25,0.00,,,0.00,weatherlink.com 1.10,2013-01-21 23:31:00,
2013-01-21 16:46:00,45.1,11.0,30.51,North,7,2.0,12.0,25,0.00,,,0.00,weatherlink.com 1.10,2013-01-21 23:46:00,
2013-01-21 17:01:00,44.2,13.0,30.51,NNE,25,6.0,8.0,28,0.00,,,0.00,weatherlink.com 1.10,2013-01-22 00:01:00,
2013-01-21 17:16:00,43.4,11.0,30.51,North,359,3.0,8.0,27,0.00,,,0.00,weatherlink.com 1.10,2013-01-22 00:16:00,
2013-01-21 17:31:00,41.9,11.0,30.52,East,92,0.0,7.0,28,0.00,,,0.00,weatherlink.com 1.10,2013-01-22 00:31:00,
2013-01-21 18:01:00,39.1,11.0,30.52,NNE,25,0.0,6.0,31,0.00,,,0.00,weatherlink.com 1.10,2013-01-22 01:01:00,
2013-01-21 18:16:00,38.3,11.0,30.54,North,357,0.0,3.0,32,0.00,,,0.00,weatherlink.com 1.10,2013-01-22 01:16:00,
2013-01-21 18:31:00,37.2,10.0,30.55,ENE,59,0.0,5.0,32,0.00,,,0.00,weatherlink.com 1.10,2013-01-22 01:31:00,
2013-01-21 18:46:00,37.1,10.0,30.55,North,1,1.0,6.0,32,0.00,,,0.00,weatherlink.com 1.10,2013-01-22 01:46:00,
2013-01-21 19:01:00,37.0,9.0,30.56,NE,45,0.0,3.0,31,0.00,,,0.00,weatherlink.com 1.10,2013-01-22 02:01:00,
2013-01-21 19:16:00,36.6,8.0,30.57,NE,48,3.0,7.0,31,0.00,,,0.00,weatherlink.com 1.10,2013-01-22 02:16:00,
2013-01-21 19:31:00,36.2,8.0,30.57,NNE,27,4.0,5.0,31,0.00,,,0.00,weatherlink.com 1.10,2013-01-22 02:31:00,
2013-01-21 19:46:00,35.9,9.0,30.57,North,360,1.0,5.0,32,0.00,,,0.00,weatherlink.com 1.10,2013-01-22 02:46:00,
2013-01-21 20:01:00,35.9,7.0,30.56,NE,44,0.0,5.0,30,0.00,,,0.00,weatherlink.com 1.10,2013-01-22 03:01:00,
2013-01-21 20:16:00,35.9,7.0,30.57,ENE,59,0.0,4.0,30,0.00,,,0.00,weatherlink.com 1.10,2013-01-22 03:16:00,
2013-01-21 20:31:00,35.2,7.0,30.57,North,1,1.0,3.0,31,0.00,,,0.00,weatherlink.com 1.10,2013-01-22 03:31:00,
2013-01-21 20:47:00,34.7,7.0,30.57,North,360,0.0,4.0,31,0.00,,,0.00,weatherlink.com 1.10,2013-01-22 03:47:00,
2013-01-21 21:02:00,34.5,7.0,30.56,East,98,0.0,2.0,31,0.00,,,0.00,weatherlink.com 1.10,2013-01-22 04:02:00,
2013-01-21 21:17:00,33.9,7.0,30.56,NE,49,1.0,3.0,33,0.00,,,0.00,weatherlink.com 1.10,2013-01-22 04:17:00,
2013-01-21 21:32:00,32.6,8.0,30.57,NE,49,0.0,2.0,35,0.00,,,0.00,weatherlink.com 1.10,2013-01-22 04:32:00,
2013-01-21 21:47:00,32.7,7.0,30.57,NE,39,0.0,3.0,34,0.00,,,0.00,weatherlink.com 1.10,2013-01-22 04:47:00,
2013-01-21 22:17:00,31.5,8.0,30.58,NNE,15,0.0,3.0,37,0.00,,,0.00,weatherlink.com 1.10,2013-01-22 05:17:00,
2013-01-21 22:32:00,32.4,6.0,30.57,NNE,33,0.0,4.0,33,0.00,,,0.00,weatherlink.com 1.10,2013-01-22 05:32:00,
2013-01-21 22:47:00,33.2,7.0,30.58,NE,46,0.0,4.0,33,0.00,,,0.00,weatherlink.com 1.10,2013-01-22 05:47:00,
2013-01-21 23:02:00,33.9,7.0,30.58,NNE,24,1.0,5.0,33,0.00,,,0.00,weatherlink.com 1.10,2013-01-22 06:02:00,
2013-01-21 23:17:00,33.9,7.0,30.58,NE,34,0.0,4.0,32,0.00,,,0.00,weatherlink.com 1.10,2013-01-22 06:17:00,
2013-01-21 23:47:00,34.1,6.0,30.58,North,11,1.0,6.0,31,0.00,,,0.00,weatherlink.com 1.10,2013-01-22 06:47:00,